Thunder radar more information blitzortung!


Radar de pluja more information rain snow radar


Visita la nostra xarxa de llocs de meteo:

Template documentation
and downloads

And another site



No particular awareness of the weather is required.    There are no Weather-warnings

Pagina Historial Weather Underground text

Diari Resum Agost 28, 2017 Unitats:  Tant    Imperial   Mètric
« Previous Dia
SegĂźent Dia »
Diari Setmana Mensual Anual Personalitzada
  Maxima: Minima: Media:
Temperatura: 98.8 °F /  37.1 °C 68.7 °F /  20.4 °C 83.8 °F /  28.8 °C
Punt de rosada: 66.9 °F /  19.4 °C 53.2 °F /  11.8 °C 63.7 °F /  17.6 °C
Humitat: 76 % 23 % 53 %
Wind Speed: 18.4 mph /  29.6 km/h - 4.1 mph /  6.6 km/h
RĂ fegues de vent: 18.4 mph /  29.6 km/h - -
Vent:- - SSE
Pression baro: 29.9 in /  1013.8 hPa 29.8 in /  1010.7 hPa -
Precipitacions: 0 in /  0.0 mm    
Historical Graphs
 
 
Dades de taula per Agost 28, 2017
Temps Temperatura Punt de rosada Pression baro Vent Wind Speed RĂ fegues de vent Humitat Rainfall Rate (Hourly)
00:01 75.4 °F /  24.1 °C 63.1 °F /  17.3 °C 29.9 in /  1013.8 hPa SW 2.6 mph /  4.2 km/h 2.6 mph /  4.2 km/h 66 % 0 in /  0.0 mm
00:06 75.2 °F /  24.0 °C 63.1 °F /  17.3 °C 29.9 in /  1013.8 hPa SW 2.3 mph /  3.7 km/h 2.3 mph /  3.7 km/h 66 % 0 in /  0.0 mm
00:11 75.2 °F /  24.0 °C 63.5 °F /  17.5 °C 29.9 in /  1012.8 hPa WSW 1.4 mph /  2.3 km/h 1.4 mph /  2.3 km/h 67 % 0 in /  0.0 mm
02:25 70.3 °F /  21.3 °C 60.4 °F /  15.8 °C 29.9 in /  1013.8 hPa Calm     71 % 0 in /  0.0 mm
02:35 70.2 °F /  21.2 °C 60.3 °F /  15.7 °C 29.9 in /  1013.8 hPa Calm   1 mph /  1.6 km/h 71 % 0 in /  0.0 mm
02:45 70 °F /  21.1 °C 60.4 °F /  15.8 °C 29.9 in /  1013.8 hPa Calm     72 % 0 in /  0.0 mm
02:55 70 °F /  21.1 °C 60.4 °F /  15.8 °C 29.9 in /  1013.8 hPa Calm     72 % 0 in /  0.0 mm
03:05 69.8 °F /  21.0 °C 60.4 °F /  15.8 °C 29.9 in /  1012.8 hPa Calm     72 % 0 in /  0.0 mm
03:15 69.4 °F /  20.8 °C 60.4 °F /  15.8 °C 29.9 in /  1013.8 hPa Calm     73 % 0 in /  0.0 mm
03:25 69.3 °F /  20.7 °C 60.3 °F /  15.7 °C 29.9 in /  1013.8 hPa Calm     73 % 0 in /  0.0 mm
03:35 68.7 °F /  20.4 °C 59.7 °F /  15.4 °C 29.9 in /  1013.8 hPa WSW 1 mph /  1.6 km/h 2 mph /  3.2 km/h 73 % 0 in /  0.0 mm
03:45 68.7 °F /  20.4 °C 60.1 °F /  15.6 °C 29.9 in /  1012.8 hPa Calm   2 mph /  3.2 km/h 74 % 0 in /  0.0 mm
03:55 69.1 °F /  20.6 °C 60.4 °F /  15.8 °C 29.9 in /  1012.8 hPa Calm   1 mph /  1.6 km/h 74 % 0 in /  0.0 mm
04:05 69.6 °F /  20.9 °C 61 °F /  16.1 °C 29.9 in /  1013.8 hPa North 2 mph /  3.2 km/h 2 mph /  3.2 km/h 74 % 0 in /  0.0 mm
04:15 70.2 °F /  21.2 °C 61.5 °F /  16.4 °C 29.9 in /  1013.8 hPa NE 1 mph /  1.6 km/h 3 mph /  4.8 km/h 74 % 0 in /  0.0 mm
09:17 75.4 °F /  24.1 °C 62.8 °F /  17.1 °C 29.9 in /  1013.8 hPa ENE 1.4 mph /  2.3 km/h 1.4 mph /  2.3 km/h 65 % 0 in /  0.0 mm
09:22 75.7 °F /  24.3 °C 63.1 °F /  17.3 °C 29.9 in /  1013.8 hPa ENE 1.2 mph /  1.9 km/h   65 % 0 in /  0.0 mm
09:27 76.1 °F /  24.5 °C 63 °F /  17.2 °C 29.9 in /  1013.8 hPa North 2.3 mph /  3.7 km/h 2.3 mph /  3.7 km/h 64 % 0 in /  0.0 mm
09:32 76.8 °F /  24.9 °C 63.7 °F /  17.6 °C 29.9 in /  1013.8 hPa NE 2.4 mph /  3.9 km/h 2.4 mph /  3.9 km/h 64 % 0 in /  0.0 mm
09:37 77 °F /  25.0 °C 63 °F /  17.2 °C 29.9 in /  1013.8 hPa ENE 2.4 mph /  3.9 km/h 2.4 mph /  3.9 km/h 62 % 0 in /  0.0 mm
09:42 77.4 °F /  25.2 °C 63.3 °F /  17.4 °C 29.9 in /  1013.8 hPa NE 2.3 mph /  3.7 km/h 2.3 mph /  3.7 km/h 62 % 0 in /  0.0 mm
09:47 78.1 °F /  25.6 °C 64 °F /  17.8 °C 29.9 in /  1013.8 hPa West 3.5 mph /  5.6 km/h 3.5 mph /  5.6 km/h 62 % 0 in /  0.0 mm
09:52 78.1 °F /  25.6 °C 63.5 °F /  17.5 °C 29.9 in /  1013.8 hPa SW 2.3 mph /  3.7 km/h   61 % 0 in /  0.0 mm
09:57 78.6 °F /  25.9 °C 64 °F /  17.8 °C 29.9 in /  1013.8 hPa NNE 1.2 mph /  1.9 km/h   61 % 0 in /  0.0 mm
10:02 78.8 °F /  26.0 °C 64.2 °F /  17.9 °C 29.9 in /  1013.8 hPa NE 1.4 mph /  2.3 km/h 1.4 mph /  2.3 km/h 61 % 0 in /  0.0 mm
10:07 79 °F /  26.1 °C 63.9 °F /  17.7 °C 29.9 in /  1013.8 hPa SW 3.5 mph /  5.6 km/h   60 % 0 in /  0.0 mm
10:12 79.7 °F /  26.5 °C 64.6 °F /  18.1 °C 29.9 in /  1013.8 hPa SW 2.3 mph /  3.7 km/h 2.3 mph /  3.7 km/h 60 % 0 in /  0.0 mm
10:17 80.2 °F /  26.8 °C 65.1 °F /  18.4 °C 29.9 in /  1013.8 hPa Calm     60 % 0 in /  0.0 mm
10:22 81.1 °F /  27.3 °C 64.9 °F /  18.3 °C 29.9 in /  1013.8 hPa ESE 2.3 mph /  3.7 km/h 2.3 mph /  3.7 km/h 58 % 0 in /  0.0 mm
10:27 81.3 °F /  27.4 °C 64.6 °F /  18.1 °C 29.9 in /  1013.8 hPa SSW 2.3 mph /  3.7 km/h 2.3 mph /  3.7 km/h 57 % 0 in /  0.0 mm
10:32 81.7 °F /  27.6 °C 65.5 °F /  18.6 °C 29.9 in /  1013.8 hPa NNE 2.3 mph /  3.7 km/h 2.3 mph /  3.7 km/h 58 % 0 in /  0.0 mm
10:37 82 °F /  27.8 °C 65.3 °F /  18.5 °C 29.9 in /  1013.8 hPa SW 4.6 mph /  7.4 km/h 4.6 mph /  7.4 km/h 57 % 0 in /  0.0 mm
10:42 82.8 °F /  28.2 °C 66 °F /  18.9 °C 29.9 in /  1012.8 hPa SW 2.3 mph /  3.7 km/h 2.3 mph /  3.7 km/h 57 % 0 in /  0.0 mm
10:47 82.6 °F /  28.1 °C 65.3 °F /  18.5 °C 29.9 in /  1012.8 hPa ENE 2.3 mph /  3.7 km/h 2.3 mph /  3.7 km/h 56 % 0 in /  0.0 mm
10:52 82 °F /  27.8 °C 64.8 °F /  18.2 °C 29.9 in /  1012.8 hPa WNW 3.5 mph /  5.6 km/h 3.5 mph /  5.6 km/h 56 % 0 in /  0.0 mm
10:57 82.6 °F /  28.1 °C 64.8 °F /  18.2 °C 29.9 in /  1013.8 hPa ESE 2.3 mph /  3.7 km/h 2.4 mph /  3.9 km/h 55 % 0 in /  0.0 mm
11:02 83.1 °F /  28.4 °C 65.8 °F /  18.8 °C 29.9 in /  1013.8 hPa NNE 3.5 mph /  5.6 km/h 3.5 mph /  5.6 km/h 56 % 0 in /  0.0 mm
11:07 83.3 °F /  28.5 °C 65.5 °F /  18.6 °C 29.9 in /  1013.8 hPa ENE 3.1 mph /  5.0 km/h 3.1 mph /  5.0 km/h 55 % 0 in /  0.0 mm
11:12 83.3 °F /  28.5 °C 64.9 °F /  18.3 °C 29.9 in /  1013.8 hPa ESE 3.5 mph /  5.6 km/h 3.5 mph /  5.6 km/h 54 % 0 in /  0.0 mm
11:17 83.8 °F /  28.8 °C 65.5 °F /  18.6 °C 29.9 in /  1013.8 hPa ESE 2.3 mph /  3.7 km/h 2.3 mph /  3.7 km/h 54 % 0 in /  0.0 mm
11:22 84.6 °F /  29.2 °C 65.5 °F /  18.6 °C 29.9 in /  1013.8 hPa West 4.3 mph /  6.9 km/h 4.3 mph /  6.9 km/h 53 % 0 in /  0.0 mm
11:27 84.9 °F /  29.4 °C 65.8 °F /  18.8 °C 29.9 in /  1013.8 hPa ESE 2.3 mph /  3.7 km/h 2.3 mph /  3.7 km/h 53 % 0 in /  0.0 mm
11:32 85.8 °F /  29.9 °C 66.2 °F /  19.0 °C 29.9 in /  1013.8 hPa WSW 3.5 mph /  5.6 km/h 3.5 mph /  5.6 km/h 52 % 0 in /  0.0 mm
11:37 86.5 °F /  30.3 °C 66.4 °F /  19.1 °C 29.9 in /  1013.8 hPa NW 2 mph /  3.2 km/h   51 % 0 in /  0.0 mm
11:42 86.7 °F /  30.4 °C 65.8 °F /  18.8 °C 29.9 in /  1013.8 hPa ENE 3.5 mph /  5.6 km/h 3.5 mph /  5.6 km/h 50 % 0 in /  0.0 mm
11:47 86.9 °F /  30.5 °C 66 °F /  18.9 °C 29.9 in /  1013.8 hPa NNE 4.6 mph /  7.4 km/h 4.6 mph /  7.4 km/h 50 % 0 in /  0.0 mm
11:52 86.2 °F /  30.1 °C 65.5 °F /  18.6 °C 29.9 in /  1013.8 hPa ENE 4.6 mph /  7.4 km/h 4.6 mph /  7.4 km/h 50 % 0 in /  0.0 mm
11:57 86.2 °F /  30.1 °C 65.5 °F /  18.6 °C 29.9 in /  1013.8 hPa East 3.5 mph /  5.6 km/h 3.5 mph /  5.6 km/h 50 % 0 in /  0.0 mm
12:02 87.8 °F /  31.0 °C 66.4 °F /  19.1 °C 29.9 in /  1013.8 hPa ENE 4.3 mph /  6.9 km/h 4.3 mph /  6.9 km/h 49 % 0 in /  0.0 mm
12:07 87.8 °F /  31.0 °C 65.7 °F /  18.7 °C 29.9 in /  1013.8 hPa NNE 5.4 mph /  8.7 km/h 5.4 mph /  8.7 km/h 48 % 0 in /  0.0 mm
12:12 87.3 °F /  30.7 °C 64.6 °F /  18.1 °C 29.9 in /  1013.8 hPa ESE 4.6 mph /  7.4 km/h 4.6 mph /  7.4 km/h 47 % 0 in /  0.0 mm
12:17 87.8 °F /  31.0 °C 65.1 °F /  18.4 °C 29.9 in /  1013.8 hPa NE 8.1 mph /  13.0 km/h 8.1 mph /  13.0 km/h 47 % 0 in /  0.0 mm
12:22 87.6 °F /  30.9 °C 64.2 °F /  17.9 °C 29.9 in /  1013.8 hPa NNE 5.8 mph /  9.3 km/h 5.8 mph /  9.3 km/h 46 % 0 in /  0.0 mm
12:27 88.2 °F /  31.2 °C 64 °F /  17.8 °C 29.9 in /  1013.8 hPa NNE 5.8 mph /  9.3 km/h 5.8 mph /  9.3 km/h 45 % 0 in /  0.0 mm
12:32 88.9 °F /  31.6 °C 64 °F /  17.8 °C 29.9 in /  1013.8 hPa SE 4.6 mph /  7.4 km/h 4.6 mph /  7.4 km/h 44 % 0 in /  0.0 mm
12:37 90.1 °F /  32.3 °C 65.8 °F /  18.8 °C 29.9 in /  1013.8 hPa NW 2.3 mph /  3.7 km/h 2.3 mph /  3.7 km/h 45 % 0 in /  0.0 mm
12:42 91 °F /  32.8 °C 66 °F /  18.9 °C 29.9 in /  1012.8 hPa ESE 2.3 mph /  3.7 km/h 2.4 mph /  3.9 km/h 44 % 0 in /  0.0 mm
12:47 91.2 °F /  32.9 °C 66.4 °F /  19.1 °C 29.9 in /  1012.8 hPa NNE 2.9 mph /  4.7 km/h 2.9 mph /  4.7 km/h 44 % 0 in /  0.0 mm
12:52 91.2 °F /  32.9 °C 66.4 °F /  19.1 °C 29.9 in /  1012.8 hPa NNE 3.5 mph /  5.6 km/h 3.5 mph /  5.6 km/h 44 % 0 in /  0.0 mm
12:57 91.8 °F /  33.2 °C 65.5 °F /  18.6 °C 29.9 in /  1012.8 hPa SE 3.5 mph /  5.6 km/h 3.5 mph /  5.6 km/h 42 % 0 in /  0.0 mm
13:02 92.5 °F /  33.6 °C 66 °F /  18.9 °C 29.9 in /  1012.8 hPa WNW 2.4 mph /  3.9 km/h 2.4 mph /  3.9 km/h 42 % 0 in /  0.0 mm
13:07 92.5 °F /  33.6 °C 66 °F /  18.9 °C 29.9 in /  1012.8 hPa NW 3.5 mph /  5.6 km/h 3.5 mph /  5.6 km/h 42 % 0 in /  0.0 mm
13:12 92.8 °F /  33.8 °C 64.9 °F /  18.3 °C 29.9 in /  1012.8 hPa East 4.6 mph /  7.4 km/h 4.6 mph /  7.4 km/h 40 % 0 in /  0.0 mm
13:18 92.7 °F /  33.7 °C 64 °F /  17.8 °C 29.9 in /  1012.8 hPa South 4 mph /  6.4 km/h 4 mph /  6.4 km/h 39 % 0 in /  0.0 mm
13:22 94.3 °F /  34.6 °C 65.5 °F /  18.6 °C 29.9 in /  1012.8 hPa SE 2.6 mph /  4.2 km/h 2.6 mph /  4.2 km/h 39 % 0 in /  0.0 mm
13:28 95 °F /  35.0 °C 64.6 °F /  18.1 °C 29.9 in /  1011.7 hPa ENE 2.3 mph /  3.7 km/h 2.3 mph /  3.7 km/h 37 % 0 in /  0.0 mm
13:33 94.1 °F /  34.5 °C 63.1 °F /  17.3 °C 29.9 in /  1011.7 hPa ESE 3.5 mph /  5.6 km/h 3.5 mph /  5.6 km/h 36 % 0 in /  0.0 mm
13:38 95.4 °F /  35.2 °C 64.9 °F /  18.3 °C 29.9 in /  1011.7 hPa SW 3.5 mph /  5.6 km/h 3.5 mph /  5.6 km/h 37 % 0 in /  0.0 mm
13:43 94.6 °F /  34.8 °C 61.2 °F /  16.2 °C 29.9 in /  1011.7 hPa NNE 4.6 mph /  7.4 km/h 4.6 mph /  7.4 km/h 33 % 0 in /  0.0 mm
13:48 94.5 °F /  34.7 °C 61.9 °F /  16.6 °C 29.9 in /  1011.7 hPa SE 4.6 mph /  7.4 km/h 4.6 mph /  7.4 km/h 34 % 0 in /  0.0 mm
13:53 95.5 °F /  35.3 °C 58.3 °F /  14.6 °C 29.9 in /  1011.7 hPa ESE 4.6 mph /  7.4 km/h 4.6 mph /  7.4 km/h 29 % 0 in /  0.0 mm
13:58 96.3 °F /  35.7 °C 60.6 °F /  15.9 °C 29.9 in /  1012.8 hPa WSW 3.5 mph /  5.6 km/h 3.5 mph /  5.6 km/h 31 % 0 in /  0.0 mm
14:03 96.6 °F /  35.9 °C 56.1 °F /  13.4 °C 29.9 in /  1012.8 hPa ESE 4.6 mph /  7.4 km/h 4.6 mph /  7.4 km/h 26 % 0 in /  0.0 mm
14:08 97.5 °F /  36.4 °C 57.9 °F /  14.4 °C 29.9 in /  1012.8 hPa SSE 4.3 mph /  6.9 km/h 4.3 mph /  6.9 km/h 27 % 0 in /  0.0 mm
14:13 98.2 °F /  36.8 °C 58.5 °F /  14.7 °C 29.9 in /  1011.7 hPa South 3.5 mph /  5.6 km/h 3.5 mph /  5.6 km/h 27 % 0 in /  0.0 mm
14:18 98.8 °F /  37.1 °C 59 °F /  15.0 °C 29.9 in /  1011.7 hPa SW 4.6 mph /  7.4 km/h 4.6 mph /  7.4 km/h 27 % 0 in /  0.0 mm
14:23 97.9 °F /  36.6 °C 56.1 °F /  13.4 °C 29.9 in /  1011.7 hPa South 3.6 mph /  5.8 km/h 3.8 mph /  6.1 km/h 25 % 0 in /  0.0 mm
14:28 97 °F /  36.1 °C 54.1 °F /  12.3 °C 29.9 in /  1011.7 hPa East 5.8 mph /  9.3 km/h 5.8 mph /  9.3 km/h 24 % 0 in /  0.0 mm
14:33 97.3 °F /  36.3 °C 53.2 °F /  11.8 °C 29.9 in /  1011.7 hPa East 4.6 mph /  7.4 km/h 4.6 mph /  7.4 km/h 23 % 0 in /  0.0 mm
14:38 97.9 °F /  36.6 °C 55 °F /  12.8 °C 29.9 in /  1011.7 hPa ENE 4.3 mph /  6.9 km/h 4.3 mph /  6.9 km/h 24 % 0 in /  0.0 mm
14:43 96.4 °F /  35.8 °C 55.9 °F /  13.3 °C 29.9 in /  1011.7 hPa ESE 10.7 mph /  17.2 km/h 10.7 mph /  17.2 km/h 26 % 0 in /  0.0 mm
14:48 96.1 °F /  35.6 °C 56.7 °F /  13.7 °C 29.9 in /  1011.7 hPa East 5.8 mph /  9.3 km/h 5.8 mph /  9.3 km/h 27 % 0 in /  0.0 mm
14:53 96.1 °F /  35.6 °C 56.7 °F /  13.7 °C 29.9 in /  1011.7 hPa ESE 10.4 mph /  16.7 km/h 10.4 mph /  16.7 km/h 27 % 0 in /  0.0 mm
14:58 95.5 °F /  35.3 °C 57.2 °F /  14.0 °C 29.9 in /  1011.7 hPa East 11.5 mph /  18.5 km/h 11.5 mph /  18.5 km/h 28 % 0 in /  0.0 mm
15:03 95.4 °F /  35.2 °C 57 °F /  13.9 °C 29.9 in /  1011.7 hPa East 8.1 mph /  13.0 km/h 8.1 mph /  13.0 km/h 28 % 0 in /  0.0 mm
15:08 95.2 °F /  35.1 °C 56.8 °F /  13.8 °C 29.9 in /  1011.7 hPa ESE 8.1 mph /  13.0 km/h 8.1 mph /  13.0 km/h 28 % 0 in /  0.0 mm
15:13 95 °F /  35.0 °C 57.7 °F /  14.3 °C 29.9 in /  1011.7 hPa East 5.9 mph /  9.5 km/h 5.9 mph /  9.5 km/h 29 % 0 in /  0.0 mm
15:18 94.6 °F /  34.8 °C 59.4 °F /  15.2 °C 29.9 in /  1011.7 hPa NE 12.7 mph /  20.4 km/h 12.7 mph /  20.4 km/h 31 % 0 in /  0.0 mm
15:23 94.5 °F /  34.7 °C 59.2 °F /  15.1 °C 29.9 in /  1011.7 hPa ENE 8.1 mph /  13.0 km/h 8.1 mph /  13.0 km/h 31 % 0 in /  0.0 mm
15:28 93.7 °F /  34.3 °C 61.2 °F /  16.2 °C 29.9 in /  1011.7 hPa ENE 8.1 mph /  13.0 km/h 8.1 mph /  13.0 km/h 34 % 0 in /  0.0 mm
15:33 93.2 °F /  34.0 °C 63.1 °F /  17.3 °C 29.9 in /  1011.7 hPa ESE 10.4 mph /  16.7 km/h 10.4 mph /  16.7 km/h 37 % 0 in /  0.0 mm
15:38 93.2 °F /  34.0 °C 63.9 °F /  17.7 °C 29.9 in /  1011.7 hPa ESE 8.1 mph /  13.0 km/h 8.1 mph /  13.0 km/h 38 % 0 in /  0.0 mm
15:43 92.5 °F /  33.6 °C 63.9 °F /  17.7 °C 29.9 in /  1011.7 hPa ENE 10.4 mph /  16.7 km/h 10.4 mph /  16.7 km/h 39 % 0 in /  0.0 mm
15:48 91.4 °F /  33.0 °C 63.7 °F /  17.6 °C 29.9 in /  1011.7 hPa South 13.8 mph /  22.2 km/h 13.8 mph /  22.2 km/h 40 % 0 in /  0.0 mm
15:53 90.3 °F /  32.4 °C 64.8 °F /  18.2 °C 29.9 in /  1011.7 hPa ESE 11.5 mph /  18.5 km/h 11.5 mph /  18.5 km/h 43 % 0 in /  0.0 mm
15:58 90.3 °F /  32.4 °C 64.8 °F /  18.2 °C 29.9 in /  1011.7 hPa SE 11.5 mph /  18.5 km/h 11.5 mph /  18.5 km/h 43 % 0 in /  0.0 mm
16:03 89.4 °F /  31.9 °C 65.3 °F /  18.5 °C 29.9 in /  1011.7 hPa East 8.7 mph /  14.0 km/h 8.7 mph /  14.0 km/h 45 % 0 in /  0.0 mm
16:08 89.2 °F /  31.8 °C 65.1 °F /  18.4 °C 29.9 in /  1011.7 hPa ESE 12.7 mph /  20.4 km/h 12.7 mph /  20.4 km/h 45 % 0 in /  0.0 mm
16:13 88.2 °F /  31.2 °C 65.5 °F /  18.6 °C 29.9 in /  1011.7 hPa ENE 11.5 mph /  18.5 km/h 11.5 mph /  18.5 km/h 47 % 0 in /  0.0 mm
16:18 87.8 °F /  31.0 °C 65.7 °F /  18.7 °C 29.9 in /  1011.7 hPa East 12.7 mph /  20.4 km/h 12.7 mph /  20.4 km/h 48 % 0 in /  0.0 mm
16:23 87.6 °F /  30.9 °C 66 °F /  18.9 °C 29.9 in /  1011.7 hPa ESE 7.6 mph /  12.2 km/h 7.6 mph /  12.2 km/h 49 % 0 in /  0.0 mm
16:28 87.6 °F /  30.9 °C 66.7 °F /  19.3 °C 29.9 in /  1011.7 hPa ESE 6 mph /  9.7 km/h 6 mph /  9.7 km/h 50 % 0 in /  0.0 mm
16:33 87.3 °F /  30.7 °C 66.4 °F /  19.1 °C 29.9 in /  1011.7 hPa ESE 6.9 mph /  11.1 km/h 8.1 mph /  13.0 km/h 50 % 0 in /  0.0 mm
16:38 87.1 °F /  30.6 °C 66.2 °F /  19.0 °C 29.9 in /  1011.7 hPa East 12.7 mph /  20.4 km/h 12.7 mph /  20.4 km/h 50 % 0 in /  0.0 mm
16:43 86.5 °F /  30.3 °C 65.7 °F /  18.7 °C 29.9 in /  1011.7 hPa ESE 6 mph /  9.7 km/h 6 mph /  9.7 km/h 50 % 0 in /  0.0 mm
16:48 86.4 °F /  30.2 °C 65.5 °F /  18.6 °C 29.9 in /  1011.7 hPa East 9.2 mph /  14.8 km/h 9.2 mph /  14.8 km/h 50 % 0 in /  0.0 mm
16:53 86.2 °F /  30.1 °C 65.8 °F /  18.8 °C 29.9 in /  1011.7 hPa SE 5.8 mph /  9.3 km/h 6.2 mph /  10.0 km/h 51 % 0 in /  0.0 mm
16:58 86 °F /  30.0 °C 65.8 °F /  18.8 °C 29.9 in /  1011.7 hPa ENE 5.8 mph /  9.3 km/h 5.9 mph /  9.5 km/h 51 % 0 in /  0.0 mm
17:03 86.9 °F /  30.5 °C 66 °F /  18.9 °C 29.9 in /  1011.7 hPa East 7.6 mph /  12.2 km/h 7.6 mph /  12.2 km/h 50 % 0 in /  0.0 mm
17:08 86.9 °F /  30.5 °C 66 °F /  18.9 °C 29.9 in /  1011.7 hPa SE 12.5 mph /  20.1 km/h 12.5 mph /  20.1 km/h 50 % 0 in /  0.0 mm
17:13 86 °F /  30.0 °C 65.1 °F /  18.4 °C 29.8 in /  1010.7 hPa NE 18.4 mph /  29.6 km/h 18.4 mph /  29.6 km/h 50 % 0 in /  0.0 mm
17:18 85.5 °F /  29.7 °C 65.3 °F /  18.5 °C 29.8 in /  1010.7 hPa ENE 7.6 mph /  12.2 km/h 7.6 mph /  12.2 km/h 51 % 0 in /  0.0 mm
17:23 85.8 °F /  29.9 °C 65.7 °F /  18.7 °C 29.8 in /  1010.7 hPa North 5.8 mph /  9.3 km/h 5.8 mph /  9.3 km/h 51 % 0 in /  0.0 mm
17:28 85.3 °F /  29.6 °C 65.1 °F /  18.4 °C 29.9 in /  1011.7 hPa SE 10.4 mph /  16.7 km/h 10.4 mph /  16.7 km/h 51 % 0 in /  0.0 mm
17:33 85.8 °F /  29.9 °C 65.7 °F /  18.7 °C 29.9 in /  1011.7 hPa East 6 mph /  9.7 km/h 6 mph /  9.7 km/h 51 % 0 in /  0.0 mm
17:38 86 °F /  30.0 °C 65.8 °F /  18.8 °C 29.9 in /  1011.7 hPa ESE 9.2 mph /  14.8 km/h 9.2 mph /  14.8 km/h 51 % 0 in /  0.0 mm
17:43 85.8 °F /  29.9 °C 65.7 °F /  18.7 °C 29.9 in /  1011.7 hPa ENE 8.1 mph /  13.0 km/h 8.1 mph /  13.0 km/h 51 % 0 in /  0.0 mm
17:48 86 °F /  30.0 °C 65.8 °F /  18.8 °C 29.9 in /  1011.7 hPa SSE 8.1 mph /  13.0 km/h 8.1 mph /  13.0 km/h 51 % 0 in /  0.0 mm
17:53 86.2 °F /  30.1 °C 66.6 °F /  19.2 °C 29.9 in /  1011.7 hPa ESE 5.8 mph /  9.3 km/h 5.8 mph /  9.3 km/h 52 % 0 in /  0.0 mm
17:58 85.5 °F /  29.7 °C 65.8 °F /  18.8 °C 29.9 in /  1011.7 hPa NW 6.9 mph /  11.1 km/h 6.9 mph /  11.1 km/h 52 % 0 in /  0.0 mm
18:03 85.1 °F /  29.5 °C 66 °F /  18.9 °C 29.9 in /  1011.7 hPa WNW 3.5 mph /  5.6 km/h 3.5 mph /  5.6 km/h 53 % 0 in /  0.0 mm
18:08 85.3 °F /  29.6 °C 66.2 °F /  19.0 °C 29.9 in /  1011.7 hPa NE 3.5 mph /  5.6 km/h 3.5 mph /  5.6 km/h 53 % 0 in /  0.0 mm
18:13 85.8 °F /  29.9 °C 66.7 °F /  19.3 °C 29.9 in /  1011.7 hPa WSW 2.3 mph /  3.7 km/h 2.3 mph /  3.7 km/h 53 % 0 in /  0.0 mm
18:18 86.2 °F /  30.1 °C 66.9 °F /  19.4 °C 29.9 in /  1011.7 hPa SW 3.5 mph /  5.6 km/h 3.5 mph /  5.6 km/h 53 % 0 in /  0.0 mm
18:23 86.2 °F /  30.1 °C 66.9 °F /  19.4 °C 29.9 in /  1011.7 hPa SW 6.9 mph /  11.1 km/h 6.9 mph /  11.1 km/h 53 % 0 in /  0.0 mm
18:28 85.6 °F /  29.8 °C 66.6 °F /  19.2 °C 29.9 in /  1011.7 hPa WSW 3.5 mph /  5.6 km/h 3.6 mph /  5.8 km/h 53 % 0 in /  0.0 mm
18:33 84.7 °F /  29.3 °C 65.1 °F /  18.4 °C 29.9 in /  1011.7 hPa SSW 9.2 mph /  14.8 km/h 9.2 mph /  14.8 km/h 52 % 0 in /  0.0 mm
18:38 84.4 °F /  29.1 °C 64.8 °F /  18.2 °C 29.9 in /  1011.7 hPa SW 6.9 mph /  11.1 km/h 6.9 mph /  11.1 km/h 52 % 0 in /  0.0 mm
18:45 83.7 °F /  28.7 °C 64.2 °F /  17.9 °C 29.8 in /  1010.7 hPa SW 6.9 mph /  11.1 km/h 6.9 mph /  11.1 km/h 52 % 0 in /  0.0 mm
18:48 83.5 °F /  28.6 °C 64 °F /  17.8 °C 29.8 in /  1010.7 hPa South 6.9 mph /  11.1 km/h 6.9 mph /  11.1 km/h 52 % 0 in /  0.0 mm
18:53 82.9 °F /  28.3 °C 64 °F /  17.8 °C 29.8 in /  1010.7 hPa WSW 6 mph /  9.7 km/h 6 mph /  9.7 km/h 53 % 0 in /  0.0 mm
18:58 82.8 °F /  28.2 °C 63.9 °F /  17.7 °C 29.9 in /  1011.7 hPa WSW 4 mph /  6.4 km/h 4 mph /  6.4 km/h 53 % 0 in /  0.0 mm
19:03 82.6 °F /  28.1 °C 63.7 °F /  17.6 °C 29.9 in /  1011.7 hPa SW 4.6 mph /  7.4 km/h 4.6 mph /  7.4 km/h 53 % 0 in /  0.0 mm
19:08 82.4 °F /  28.0 °C 63.5 °F /  17.5 °C 29.9 in /  1011.7 hPa WSW 5.9 mph /  9.5 km/h 5.9 mph /  9.5 km/h 53 % 0 in /  0.0 mm
19:13 82 °F /  27.8 °C 63.9 °F /  17.7 °C 29.9 in /  1011.7 hPa SW 2.3 mph /  3.7 km/h 2.6 mph /  4.2 km/h 54 % 0 in /  0.0 mm
19:18 81.9 °F /  27.7 °C 63.7 °F /  17.6 °C 29.9 in /  1011.7 hPa West 3.5 mph /  5.6 km/h 3.5 mph /  5.6 km/h 54 % 0 in /  0.0 mm
19:23 81.7 °F /  27.6 °C 63.3 °F /  17.4 °C 29.9 in /  1011.7 hPa SSW 4.6 mph /  7.4 km/h 4.6 mph /  7.4 km/h 54 % 0 in /  0.0 mm
19:28 81.5 °F /  27.5 °C 63.9 °F /  17.7 °C 29.9 in /  1011.7 hPa West 5.8 mph /  9.3 km/h 5.8 mph /  9.3 km/h 55 % 0 in /  0.0 mm
19:33 81.3 °F /  27.4 °C 63.7 °F /  17.6 °C 29.9 in /  1011.7 hPa SSW 2.3 mph /  3.7 km/h   55 % 0 in /  0.0 mm
19:38 81.3 °F /  27.4 °C 63.7 °F /  17.6 °C 29.9 in /  1011.7 hPa WSW 4.3 mph /  6.9 km/h 4.3 mph /  6.9 km/h 55 % 0 in /  0.0 mm
19:43 81.1 °F /  27.3 °C 63.3 °F /  17.4 °C 29.9 in /  1011.7 hPa SW 2.3 mph /  3.7 km/h   55 % 0 in /  0.0 mm
19:48 81.1 °F /  27.3 °C 63.3 °F /  17.4 °C 29.9 in /  1011.7 hPa SW 4.6 mph /  7.4 km/h 4.6 mph /  7.4 km/h 55 % 0 in /  0.0 mm
19:53 81.1 °F /  27.3 °C 63.3 °F /  17.4 °C 29.9 in /  1011.7 hPa SW 2.3 mph /  3.7 km/h   55 % 0 in /  0.0 mm
19:58 81.1 °F /  27.3 °C 64 °F /  17.8 °C 29.9 in /  1011.7 hPa SW 2.4 mph /  3.9 km/h 2.4 mph /  3.9 km/h 56 % 0 in /  0.0 mm
20:03 81.1 °F /  27.3 °C 64 °F /  17.8 °C 29.9 in /  1011.7 hPa WSW 2.3 mph /  3.7 km/h 2.3 mph /  3.7 km/h 56 % 0 in /  0.0 mm
20:08 81.1 °F /  27.3 °C 64 °F /  17.8 °C 29.9 in /  1011.7 hPa SW 2.4 mph /  3.9 km/h 2.4 mph /  3.9 km/h 56 % 0 in /  0.0 mm
20:13 81 °F /  27.2 °C 63.9 °F /  17.7 °C 29.9 in /  1011.7 hPa SW 2.3 mph /  3.7 km/h 2.3 mph /  3.7 km/h 56 % 0 in /  0.0 mm
20:18 80.8 °F /  27.1 °C 63.7 °F /  17.6 °C 29.9 in /  1011.7 hPa WSW 3.5 mph /  5.6 km/h 3.5 mph /  5.6 km/h 56 % 0 in /  0.0 mm
20:23 80.6 °F /  27.0 °C 64 °F /  17.8 °C 29.9 in /  1011.7 hPa SW 2.3 mph /  3.7 km/h 2.3 mph /  3.7 km/h 57 % 0 in /  0.0 mm
20:28 80.4 °F /  26.9 °C 64.2 °F /  17.9 °C 29.9 in /  1011.7 hPa WSW 2 mph /  3.2 km/h 2 mph /  3.2 km/h 58 % 0 in /  0.0 mm
20:33 80.4 °F /  26.9 °C 64.8 °F /  18.2 °C 29.9 in /  1011.7 hPa West 2.3 mph /  3.7 km/h   59 % 0 in /  0.0 mm
20:38 80.2 °F /  26.8 °C 64.6 °F /  18.1 °C 29.9 in /  1011.7 hPa SW 2.3 mph /  3.7 km/h 2.3 mph /  3.7 km/h 59 % 0 in /  0.0 mm
20:43 80.1 °F /  26.7 °C 64.4 °F /  18.0 °C 29.9 in /  1011.7 hPa SW 2.3 mph /  3.7 km/h 2.3 mph /  3.7 km/h 59 % 0 in /  0.0 mm
20:48 80.1 °F /  26.7 °C 64.4 °F /  18.0 °C 29.9 in /  1011.7 hPa SW 2.3 mph /  3.7 km/h 2.3 mph /  3.7 km/h 59 % 0 in /  0.0 mm
20:53 79.9 °F /  26.6 °C 64.2 °F /  17.9 °C 29.9 in /  1011.7 hPa Calm     59 % 0 in /  0.0 mm
20:58 79.9 °F /  26.6 °C 64.8 °F /  18.2 °C 29.9 in /  1011.7 hPa West 1.2 mph /  1.9 km/h 1.2 mph /  1.9 km/h 60 % 0 in /  0.0 mm
21:03 79.9 °F /  26.6 °C 64.8 °F /  18.2 °C 29.9 in /  1011.7 hPa NNE 2.3 mph /  3.7 km/h 2.3 mph /  3.7 km/h 60 % 0 in /  0.0 mm
21:08 79.7 °F /  26.5 °C 64.6 °F /  18.1 °C 29.9 in /  1011.7 hPa NNE 1.2 mph /  1.9 km/h   60 % 0 in /  0.0 mm
21:13 79.7 °F /  26.5 °C 64.6 °F /  18.1 °C 29.8 in /  1010.7 hPa NNW 2.3 mph /  3.7 km/h 2.3 mph /  3.7 km/h 60 % 0 in /  0.0 mm
21:18 79.7 °F /  26.5 °C 64.6 °F /  18.1 °C 29.8 in /  1010.7 hPa WNW 1.2 mph /  1.9 km/h 1.2 mph /  1.9 km/h 60 % 0 in /  0.0 mm
21:23 79.7 °F /  26.5 °C 65.1 °F /  18.4 °C 29.8 in /  1010.7 hPa North 1.2 mph /  1.9 km/h   61 % 0 in /  0.0 mm
21:28 79.7 °F /  26.5 °C 64.6 °F /  18.1 °C 29.9 in /  1011.7 hPa West 1.2 mph /  1.9 km/h   60 % 0 in /  0.0 mm
21:33 79.5 °F /  26.4 °C 64.4 °F /  18.0 °C 29.9 in /  1011.7 hPa SW 2.3 mph /  3.7 km/h 2.3 mph /  3.7 km/h 60 % 0 in /  0.0 mm
21:38 79.5 °F /  26.4 °C 64.9 °F /  18.3 °C 29.9 in /  1011.7 hPa SW 1.2 mph /  1.9 km/h 1.2 mph /  1.9 km/h 61 % 0 in /  0.0 mm
21:43 79.3 °F /  26.3 °C 64.8 °F /  18.2 °C 29.9 in /  1011.7 hPa Calm     61 % 0 in /  0.0 mm
21:48 79.3 °F /  26.3 °C 64.8 °F /  18.2 °C 29.9 in /  1011.7 hPa SW 1.2 mph /  1.9 km/h   61 % 0 in /  0.0 mm
21:53 79.2 °F /  26.2 °C 64.6 °F /  18.1 °C 29.9 in /  1011.7 hPa SW 2.3 mph /  3.7 km/h 2.3 mph /  3.7 km/h 61 % 0 in /  0.0 mm
21:58 79 °F /  26.1 °C 64.4 °F /  18.0 °C 29.9 in /  1011.7 hPa SW 1.2 mph /  1.9 km/h 1.2 mph /  1.9 km/h 61 % 0 in /  0.0 mm
22:03 79 °F /  26.1 °C 64.8 °F /  18.2 °C 29.9 in /  1011.7 hPa Calm     62 % 0 in /  0.0 mm
22:08 79 °F /  26.1 °C 64.8 °F /  18.2 °C 29.9 in /  1011.7 hPa Calm     62 % 0 in /  0.0 mm
22:13 79 °F /  26.1 °C 64.8 °F /  18.2 °C 29.9 in /  1011.7 hPa Calm     62 % 0 in /  0.0 mm
22:18 79 °F /  26.1 °C 64.8 °F /  18.2 °C 29.9 in /  1011.7 hPa NE 2.3 mph /  3.7 km/h 2.3 mph /  3.7 km/h 62 % 0 in /  0.0 mm
22:23 79 °F /  26.1 °C 64.8 °F /  18.2 °C 29.9 in /  1011.7 hPa Calm     62 % 0 in /  0.0 mm
22:28 79.2 °F /  26.2 °C 64.9 °F /  18.3 °C 29.8 in /  1010.7 hPa Calm     62 % 0 in /  0.0 mm
22:33 79.2 °F /  26.2 °C 64.9 °F /  18.3 °C 29.8 in /  1010.7 hPa East 1.2 mph /  1.9 km/h   62 % 0 in /  0.0 mm
22:38 79.3 °F /  26.3 °C 65.1 °F /  18.4 °C 29.8 in /  1010.7 hPa ENE 1.2 mph /  1.9 km/h   62 % 0 in /  0.0 mm
22:43 79 °F /  26.1 °C 64.8 °F /  18.2 °C 29.9 in /  1011.7 hPa SW 2.3 mph /  3.7 km/h 2.3 mph /  3.7 km/h 62 % 0 in /  0.0 mm
22:48 78.6 °F /  25.9 °C 64.6 °F /  18.1 °C 29.9 in /  1011.7 hPa SW 2.4 mph /  3.9 km/h 2.4 mph /  3.9 km/h 62 % 0 in /  0.0 mm
22:53 78.4 °F /  25.8 °C 64.8 °F /  18.2 °C 29.9 in /  1011.7 hPa SW 1.2 mph /  1.9 km/h 1.2 mph /  1.9 km/h 63 % 0 in /  0.0 mm
22:58 78.4 °F /  25.8 °C 64.8 °F /  18.2 °C 29.8 in /  1010.7 hPa SW 1.2 mph /  1.9 km/h 1.2 mph /  1.9 km/h 63 % 0 in /  0.0 mm
23:03 78.4 °F /  25.8 °C 64.8 °F /  18.2 °C 29.8 in /  1010.7 hPa SW 2.3 mph /  3.7 km/h 2.3 mph /  3.7 km/h 63 % 0 in /  0.0 mm
23:08 78.4 °F /  25.8 °C 64.8 °F /  18.2 °C 29.8 in /  1010.7 hPa SW 2.3 mph /  3.7 km/h 2.3 mph /  3.7 km/h 63 % 0 in /  0.0 mm
23:13 78.4 °F /  25.8 °C 64.8 °F /  18.2 °C 29.9 in /  1011.7 hPa SW 2.3 mph /  3.7 km/h 2.3 mph /  3.7 km/h 63 % 0 in /  0.0 mm
23:18 78.3 °F /  25.7 °C 65.1 °F /  18.4 °C 29.9 in /  1011.7 hPa SW 2.3 mph /  3.7 km/h 2.3 mph /  3.7 km/h 64 % 0 in /  0.0 mm
23:23 78.1 °F /  25.6 °C 64.9 °F /  18.3 °C 29.9 in /  1011.7 hPa WSW 2.3 mph /  3.7 km/h 2.3 mph /  3.7 km/h 64 % 0 in /  0.0 mm
23:28 78.1 °F /  25.6 °C 64.9 °F /  18.3 °C 29.9 in /  1011.7 hPa WSW 2.4 mph /  3.9 km/h 2.4 mph /  3.9 km/h 64 % 0 in /  0.0 mm
23:33 78.1 °F /  25.6 °C 64.9 °F /  18.3 °C 29.9 in /  1011.7 hPa WSW 1.6 mph /  2.6 km/h 1.6 mph /  2.6 km/h 64 % 0 in /  0.0 mm
23:38 78.1 °F /  25.6 °C 64.9 °F /  18.3 °C 29.9 in /  1011.7 hPa WSW 2.3 mph /  3.7 km/h 2.3 mph /  3.7 km/h 64 % 0 in /  0.0 mm
23:43 78.1 °F /  25.6 °C 64.9 °F /  18.3 °C 29.9 in /  1011.7 hPa SW 2.3 mph /  3.7 km/h 2.3 mph /  3.7 km/h 64 % 0 in /  0.0 mm
23:45 73.6 °F /  23.1 °C 65.5 °F /  18.6 °C 29.9 in /  1011.7 hPa SW 2 mph /  3.2 km/h 3 mph /  4.8 km/h 76 % 0 in /  0.0 mm
23:48 77.9 °F /  25.5 °C 64.8 °F /  18.2 °C 29.9 in /  1011.7 hPa SW 2.9 mph /  4.7 km/h 2.9 mph /  4.7 km/h 64 % 0 in /  0.0 mm
23:53 77.7 °F /  25.4 °C 64.6 °F /  18.1 °C 29.9 in /  1011.7 hPa WSW 3.5 mph /  5.6 km/h 3.5 mph /  5.6 km/h 64 % 0 in /  0.0 mm
23:55 73.8 °F /  23.2 °C 65.7 °F /  18.7 °C 29.9 in /  1011.7 hPa WSW 2 mph /  3.2 km/h 4 mph /  6.4 km/h 76 % 0 in /  0.0 mm
23:58 77.9 °F /  25.5 °C 64.8 °F /  18.2 °C 29.9 in /  1012.8 hPa SW 2.3 mph /  3.7 km/h 2.3 mph /  3.7 km/h 64 % 0 in /  0.0 mm
Meteo Sesrovires
Elogis d' Weather Underground - 3.5 mb

Guio original per  Jim McMurry - jmcmurry@mwt.net Adaptat per a la plantilla per  Wim van der Kuil - Leuven-Template.eu

Trobareu la nostra informacio del temps tambe a:

Weather Underground

AWEKAS